sensor_id;sensor_type;location;lat;lon;timestamp;P1;durP1;ratioP1;P2;durP2;ratioP2
47335;SDS011;33068;51.990;5.926;2022-12-07T00:01:12;16.80;;;8.80;;
47335;SDS011;33068;51.990;5.926;2022-12-07T00:03:41;13.13;;;7.93;;
47335;SDS011;33068;51.990;5.926;2022-12-07T00:06:10;19.25;;;9.20;;
47335;SDS011;33068;51.990;5.926;2022-12-07T00:08:38;13.63;;;8.48;;
47335;SDS011;33068;51.990;5.926;2022-12-07T00:11:07;14.02;;;8.18;;
47335;SDS011;33068;51.990;5.926;2022-12-07T00:13:36;14.13;;;7.75;;
47335;SDS011;33068;51.990;5.926;2022-12-07T00:16:04;13.18;;;7.65;;
47335;SDS011;33068;51.990;5.926;2022-12-07T00:18:33;11.82;;;7.15;;
47335;SDS011;33068;51.990;5.926;2022-12-07T00:21:00;13.23;;;7.85;;
47335;SDS011;33068;51.990;5.926;2022-12-07T00:23:27;11.65;;;7.00;;
47335;SDS011;33068;51.990;5.926;2022-12-07T00:25:55;11.60;;;7.38;;
47335;SDS011;33068;51.990;5.926;2022-12-07T00:28:24;14.13;;;6.93;;
47335;SDS011;33068;51.990;5.926;2022-12-07T00:30:51;11.45;;;6.05;;
47335;SDS011;33068;51.990;5.926;2022-12-07T00:33:18;16.35;;;7.05;;
47335;SDS011;33068;51.990;5.926;2022-12-07T00:35:45;13.38;;;8.68;;
47335;SDS011;33068;51.990;5.926;2022-12-07T00:38:12;10.23;;;7.43;;
47335;SDS011;33068;51.990;5.926;2022-12-07T00:40:39;9.25;;;5.80;;
47335;SDS011;33068;51.990;5.926;2022-12-07T00:43:06;11.70;;;6.80;;
47335;SDS011;33068;51.990;5.926;2022-12-07T00:45:35;10.63;;;6.05;;
47335;SDS011;33068;51.990;5.926;2022-12-07T00:48:02;9.65;;;6.07;;
47335;SDS011;33068;51.990;5.926;2022-12-07T00:50:29;10.63;;;5.43;;
47335;SDS011;33068;51.990;5.926;2022-12-07T00:52:56;8.63;;;5.10;;
47335;SDS011;33068;51.990;5.926;2022-12-07T00:55:23;10.10;;;5.55;;
47335;SDS011;33068;51.990;5.926;2022-12-07T00:57:50;11.73;;;6.60;;
47335;SDS011;33068;51.990;5.926;2022-12-07T01:00:18;14.02;;;6.50;;
47335;SDS011;33068;51.990;5.926;2022-12-07T01:02:46;12.90;;;6.85;;
47335;SDS011;33068;51.990;5.926;2022-12-07T01:05:13;9.43;;;6.60;;
47335;SDS011;33068;51.990;5.926;2022-12-07T01:07:40;11.23;;;7.43;;
47335;SDS011;33068;51.990;5.926;2022-12-07T01:10:08;19.73;;;12.07;;
47335;SDS011;33068;51.990;5.926;2022-12-07T01:12:35;14.00;;;9.50;;
47335;SDS011;33068;51.990;5.926;2022-12-07T01:15:02;12.55;;;8.40;;
47335;SDS011;33068;51.990;5.926;2022-12-07T01:17:30;14.90;;;7.45;;
47335;SDS011;33068;51.990;5.926;2022-12-07T01:19:59;13.70;;;7.35;;
47335;SDS011;33068;51.990;5.926;2022-12-07T01:22:26;11.95;;;7.00;;
47335;SDS011;33068;51.990;5.926;2022-12-07T01:24:53;16.13;;;7.45;;
47335;SDS011;33068;51.990;5.926;2022-12-07T01:27:20;13.05;;;6.63;;
47335;SDS011;33068;51.990;5.926;2022-12-07T01:29:47;12.65;;;7.22;;
47335;SDS011;33068;51.990;5.926;2022-12-07T01:32:14;15.38;;;7.20;;
47335;SDS011;33068;51.990;5.926;2022-12-07T01:34:41;12.77;;;7.32;;
47335;SDS011;33068;51.990;5.926;2022-12-07T01:37:10;13.27;;;7.30;;
47335;SDS011;33068;51.990;5.926;2022-12-07T01:39:37;15.15;;;7.35;;
47335;SDS011;33068;51.990;5.926;2022-12-07T01:42:04;13.45;;;7.47;;
47335;SDS011;33068;51.990;5.926;2022-12-07T01:44:31;13.38;;;7.10;;
47335;SDS011;33068;51.990;5.926;2022-12-07T01:46:59;12.35;;;6.95;;
47335;SDS011;33068;51.990;5.926;2022-12-07T01:49:29;20.73;;;7.70;;
47335;SDS011;33068;51.990;5.926;2022-12-07T01:52:13;10.70;;;7.03;;
47335;SDS011;33068;51.990;5.926;2022-12-07T01:54:42;13.60;;;7.07;;
47335;SDS011;33068;51.990;5.926;2022-12-07T01:57:11;12.98;;;6.90;;
47335;SDS011;33068;51.990;5.926;2022-12-07T01:59:42;13.05;;;7.07;;
47335;SDS011;33068;51.990;5.926;2022-12-07T02:02:13;15.50;;;7.55;;
47335;SDS011;33068;51.990;5.926;2022-12-07T02:04:45;12.80;;;6.40;;
47335;SDS011;33068;51.990;5.926;2022-12-07T02:07:14;14.98;;;7.57;;
47335;SDS011;33068;51.990;5.926;2022-12-07T02:09:42;16.05;;;8.43;;
47335;SDS011;33068;51.990;5.926;2022-12-07T02:12:09;13.63;;;7.63;;
47335;SDS011;33068;51.990;5.926;2022-12-07T02:14:36;10.80;;;6.97;;
47335;SDS011;33068;51.990;5.926;2022-12-07T02:17:07;11.68;;;6.72;;
47335;SDS011;33068;51.990;5.926;2022-12-07T02:22:48;11.93;;;6.85;;
47335;SDS011;33068;51.990;5.926;2022-12-07T02:25:30;18.23;;;7.30;;
47335;SDS011;33068;51.990;5.926;2022-12-07T02:28:12;20.80;;;7.53;;
47335;SDS011;33068;51.990;5.926;2022-12-07T02:30:49;14.35;;;6.47;;
47335;SDS011;33068;51.990;5.926;2022-12-07T02:33:19;19.48;;;6.90;;
47335;SDS011;33068;51.990;5.926;2022-12-07T02:35:54;13.10;;;7.30;;
47335;SDS011;33068;51.990;5.926;2022-12-07T02:38:26;14.15;;;6.88;;
47335;SDS011;33068;51.990;5.926;2022-12-07T02:40:57;17.33;;;7.13;;
47335;SDS011;33068;51.990;5.926;2022-12-07T02:43:31;14.70;;;6.10;;
47335;SDS011;33068;51.990;5.926;2022-12-07T02:46:05;12.48;;;5.22;;
47335;SDS011;33068;51.990;5.926;2022-12-07T02:48:35;11.07;;;5.13;;
47335;SDS011;33068;51.990;5.926;2022-12-07T02:51:04;11.68;;;5.68;;
47335;SDS011;33068;51.990;5.926;2022-12-07T02:53:32;10.50;;;5.18;;
47335;SDS011;33068;51.990;5.926;2022-12-07T02:56:01;10.68;;;5.45;;
47335;SDS011;33068;51.990;5.926;2022-12-07T02:58:36;12.18;;;5.35;;
47335;SDS011;33068;51.990;5.926;2022-12-07T03:01:15;14.45;;;5.63;;
47335;SDS011;33068;51.990;5.926;2022-12-07T03:03:54;14.35;;;5.43;;
47335;SDS011;33068;51.990;5.926;2022-12-07T03:06:30;9.40;;;4.65;;
47335;SDS011;33068;51.990;5.926;2022-12-07T03:09:04;10.25;;;5.28;;
47335;SDS011;33068;51.990;5.926;2022-12-07T03:11:45;8.13;;;4.88;;
47335;SDS011;33068;51.990;5.926;2022-12-07T03:14:17;9.07;;;5.43;;
47335;SDS011;33068;51.990;5.926;2022-12-07T03:16:52;11.02;;;4.90;;
47335;SDS011;33068;51.990;5.926;2022-12-07T03:19:23;10.00;;;4.38;;
47335;SDS011;33068;51.990;5.926;2022-12-07T03:21:53;12.98;;;5.28;;
47335;SDS011;33068;51.990;5.926;2022-12-07T03:24:26;15.18;;;4.88;;
47335;SDS011;33068;51.990;5.926;2022-12-07T03:26:56;12.38;;;5.28;;
47335;SDS011;33068;51.990;5.926;2022-12-07T03:29:30;16.42;;;5.10;;
47335;SDS011;33068;51.990;5.926;2022-12-07T03:32:08;6.27;;;4.37;;
47335;SDS011;33068;51.990;5.926;2022-12-07T03:34:47;8.77;;;5.10;;
47335;SDS011;33068;51.990;5.926;2022-12-07T03:37:21;8.13;;;4.40;;
47335;SDS011;33068;51.990;5.926;2022-12-07T03:42:28;10.30;;;3.75;;
47335;SDS011;33068;51.990;5.926;2022-12-07T03:44:56;25.42;;;4.90;;
47335;SDS011;33068;51.990;5.926;2022-12-07T03:47:26;5.45;;;3.50;;
47335;SDS011;33068;51.990;5.926;2022-12-07T03:50:00;10.65;;;4.07;;
47335;SDS011;33068;51.990;5.926;2022-12-07T03:52:35;9.75;;;3.83;;
47335;SDS011;33068;51.990;5.926;2022-12-07T03:55:08;7.43;;;4.22;;
47335;SDS011;33068;51.990;5.926;2022-12-07T03:57:45;7.38;;;3.40;;
47335;SDS011;33068;51.990;5.926;2022-12-07T04:00:19;5.47;;;3.88;;
47335;SDS011;33068;51.990;5.926;2022-12-07T04:02:50;6.88;;;4.18;;
47335;SDS011;33068;51.990;5.926;2022-12-07T04:05:18;9.52;;;3.58;;
47335;SDS011;33068;51.990;5.926;2022-12-07T04:07:47;15.52;;;3.72;;
47335;SDS011;33068;51.990;5.926;2022-12-07T04:10:14;5.25;;;3.58;;
47335;SDS011;33068;51.990;5.926;2022-12-07T04:12:43;7.93;;;3.65;;
47335;SDS011;33068;51.990;5.926;2022-12-07T04:15:10;10.02;;;3.30;;
47335;SDS011;33068;51.990;5.926;2022-12-07T04:17:37;9.23;;;3.03;;
47335;SDS011;33068;51.990;5.926;2022-12-07T04:20:07;5.57;;;2.30;;
47335;SDS011;33068;51.990;5.926;2022-12-07T04:22:36;4.75;;;2.53;;
47335;SDS011;33068;51.990;5.926;2022-12-07T04:25:03;5.85;;;2.13;;
47335;SDS011;33068;51.990;5.926;2022-12-07T04:27:34;9.75;;;2.45;;
47335;SDS011;33068;51.990;5.926;2022-12-07T04:30:01;6.35;;;2.25;;
47335;SDS011;33068;51.990;5.926;2022-12-07T04:32:29;8.27;;;2.78;;
47335;SDS011;33068;51.990;5.926;2022-12-07T04:34:56;4.30;;;2.00;;
47335;SDS011;33068;51.990;5.926;2022-12-07T04:37:24;9.65;;;2.42;;
47335;SDS011;33068;51.990;5.926;2022-12-07T04:39:53;7.72;;;2.28;;
47335;SDS011;33068;51.990;5.926;2022-12-07T04:42:20;6.75;;;2.40;;
47335;SDS011;33068;51.990;5.926;2022-12-07T04:44:47;6.05;;;1.90;;
47335;SDS011;33068;51.990;5.926;2022-12-07T04:47:16;10.20;;;2.00;;
47335;SDS011;33068;51.990;5.926;2022-12-07T04:49:46;5.97;;;1.67;;
47335;SDS011;33068;51.990;5.926;2022-12-07T04:52:19;7.93;;;2.05;;
47335;SDS011;33068;51.990;5.926;2022-12-07T04:54:48;6.10;;;1.85;;
47335;SDS011;33068;51.990;5.926;2022-12-07T04:57:18;7.10;;;1.88;;
47335;SDS011;33068;51.990;5.926;2022-12-07T04:59:46;4.20;;;2.17;;
47335;SDS011;33068;51.990;5.926;2022-12-07T05:02:13;3.28;;;2.05;;
47335;SDS011;33068;51.990;5.926;2022-12-07T05:04:40;4.78;;;2.03;;
47335;SDS011;33068;51.990;5.926;2022-12-07T05:07:10;3.35;;;1.90;;
47335;SDS011;33068;51.990;5.926;2022-12-07T05:09:37;8.05;;;1.83;;
47335;SDS011;33068;51.990;5.926;2022-12-07T05:12:05;11.10;;;1.73;;
47335;SDS011;33068;51.990;5.926;2022-12-07T05:14:35;6.00;;;1.67;;
47335;SDS011;33068;51.990;5.926;2022-12-07T05:17:11;11.80;;;2.55;;
47335;SDS011;33068;51.990;5.926;2022-12-07T05:19:38;10.30;;;2.10;;
47335;SDS011;33068;51.990;5.926;2022-12-07T05:22:05;3.70;;;1.52;;
47335;SDS011;33068;51.990;5.926;2022-12-07T05:24:32;7.63;;;2.03;;
47335;SDS011;33068;51.990;5.926;2022-12-07T05:26:59;2.13;;;1.23;;
47335;SDS011;33068;51.990;5.926;2022-12-07T05:29:28;7.65;;;1.67;;
47335;SDS011;33068;51.990;5.926;2022-12-07T05:31:58;8.57;;;1.58;;
47335;SDS011;33068;51.990;5.926;2022-12-07T05:34:25;6.07;;;2.05;;
47335;SDS011;33068;51.990;5.926;2022-12-07T05:36:52;7.13;;;2.13;;
47335;SDS011;33068;51.990;5.926;2022-12-07T05:39:20;6.82;;;1.58;;
47335;SDS011;33068;51.990;5.926;2022-12-07T05:41:48;4.03;;;1.65;;
47335;SDS011;33068;51.990;5.926;2022-12-07T05:44:34;4.95;;;1.15;;
47335;SDS011;33068;51.990;5.926;2022-12-07T05:47:01;6.00;;;1.38;;
47335;SDS011;33068;51.990;5.926;2022-12-07T05:49:29;5.75;;;1.30;;
47335;SDS011;33068;51.990;5.926;2022-12-07T05:51:56;5.07;;;1.48;;
47335;SDS011;33068;51.990;5.926;2022-12-07T05:54:23;6.78;;;1.70;;
47335;SDS011;33068;51.990;5.926;2022-12-07T05:56:53;6.43;;;1.52;;
47335;SDS011;33068;51.990;5.926;2022-12-07T05:59:23;7.10;;;1.40;;
47335;SDS011;33068;51.990;5.926;2022-12-07T06:01:50;5.05;;;1.33;;
47335;SDS011;33068;51.990;5.926;2022-12-07T06:04:18;4.22;;;1.15;;
47335;SDS011;33068;51.990;5.926;2022-12-07T06:06:52;6.57;;;1.58;;
47335;SDS011;33068;51.990;5.926;2022-12-07T06:09:22;8.25;;;1.40;;
47335;SDS011;33068;51.990;5.926;2022-12-07T06:11:50;5.70;;;1.40;;
47335;SDS011;33068;51.990;5.926;2022-12-07T06:14:36;5.80;;;1.27;;
47335;SDS011;33068;51.990;5.926;2022-12-07T06:17:05;8.55;;;1.75;;
47335;SDS011;33068;51.990;5.926;2022-12-07T06:19:33;3.95;;;1.70;;
47335;SDS011;33068;51.990;5.926;2022-12-07T06:22:00;3.78;;;1.40;;
47335;SDS011;33068;51.990;5.926;2022-12-07T06:24:28;10.50;;;1.67;;
47335;SDS011;33068;51.990;5.926;2022-12-07T06:26:55;9.02;;;2.17;;
47335;SDS011;33068;51.990;5.926;2022-12-07T06:29:22;7.90;;;2.15;;
47335;SDS011;33068;51.990;5.926;2022-12-07T06:31:49;8.18;;;1.88;;
47335;SDS011;33068;51.990;5.926;2022-12-07T06:34:21;4.03;;;2.05;;
47335;SDS011;33068;51.990;5.926;2022-12-07T06:36:49;7.35;;;1.60;;
47335;SDS011;33068;51.990;5.926;2022-12-07T06:39:19;3.35;;;1.75;;
47335;SDS011;33068;51.990;5.926;2022-12-07T06:41:46;7.93;;;1.90;;
47335;SDS011;33068;51.990;5.926;2022-12-07T06:44:16;6.05;;;2.05;;
47335;SDS011;33068;51.990;5.926;2022-12-07T06:46:48;3.58;;;1.10;;
47335;SDS011;33068;51.990;5.926;2022-12-07T06:49:22;8.05;;;1.75;;
47335;SDS011;33068;51.990;5.926;2022-12-07T06:51:49;4.82;;;2.22;;
47335;SDS011;33068;51.990;5.926;2022-12-07T06:54:17;11.00;;;1.17;;
47335;SDS011;33068;51.990;5.926;2022-12-07T06:56:44;10.32;;;1.92;;
47335;SDS011;33068;51.990;5.926;2022-12-07T06:59:13;14.68;;;2.13;;
47335;SDS011;33068;51.990;5.926;2022-12-07T07:01:40;5.55;;;1.40;;
47335;SDS011;33068;51.990;5.926;2022-12-07T07:04:07;5.18;;;1.20;;
47335;SDS011;33068;51.990;5.926;2022-12-07T07:06:36;5.50;;;1.73;;
47335;SDS011;33068;51.990;5.926;2022-12-07T07:09:03;4.40;;;1.42;;
47335;SDS011;33068;51.990;5.926;2022-12-07T07:11:33;4.35;;;1.35;;
47335;SDS011;33068;51.990;5.926;2022-12-07T07:14:00;7.88;;;1.50;;
47335;SDS011;33068;51.990;5.926;2022-12-07T07:16:29;8.70;;;1.48;;
47335;SDS011;33068;51.990;5.926;2022-12-07T07:18:59;9.02;;;1.67;;
47335;SDS011;33068;51.990;5.926;2022-12-07T07:21:26;5.60;;;1.60;;
47335;SDS011;33068;51.990;5.926;2022-12-07T07:23:55;5.63;;;1.20;;
47335;SDS011;33068;51.990;5.926;2022-12-07T07:26:22;7.32;;;1.67;;
47335;SDS011;33068;51.990;5.926;2022-12-07T07:28:49;7.70;;;1.55;;
47335;SDS011;33068;51.990;5.926;2022-12-07T07:31:23;8.25;;;1.27;;
47335;SDS011;33068;51.990;5.926;2022-12-07T07:34:02;3.22;;;1.30;;
47335;SDS011;33068;51.990;5.926;2022-12-07T07:36:34;4.50;;;1.17;;
47335;SDS011;33068;51.990;5.926;2022-12-07T07:39:05;7.32;;;1.33;;
47335;SDS011;33068;51.990;5.926;2022-12-07T07:41:32;4.43;;;1.30;;
47335;SDS011;33068;51.990;5.926;2022-12-07T07:44:01;2.15;;;1.17;;
47335;SDS011;33068;51.990;5.926;2022-12-07T07:46:28;5.95;;;1.65;;
47335;SDS011;33068;51.990;5.926;2022-12-07T07:48:55;2.95;;;1.38;;
47335;SDS011;33068;51.990;5.926;2022-12-07T07:51:22;4.25;;;1.33;;
47335;SDS011;33068;51.990;5.926;2022-12-07T07:53:53;4.70;;;1.30;;
47335;SDS011;33068;51.990;5.926;2022-12-07T07:56:21;9.80;;;1.67;;
47335;SDS011;33068;51.990;5.926;2022-12-07T07:58:51;10.27;;;1.95;;
47335;SDS011;33068;51.990;5.926;2022-12-07T08:01:18;6.82;;;1.90;;
47335;SDS011;33068;51.990;5.926;2022-12-07T08:03:45;9.88;;;1.40;;
47335;SDS011;33068;51.990;5.926;2022-12-07T08:06:13;8.98;;;1.27;;
47335;SDS011;33068;51.990;5.926;2022-12-07T08:08:40;8.50;;;1.30;;
47335;SDS011;33068;51.990;5.926;2022-12-07T08:11:08;9.48;;;1.35;;
47335;SDS011;33068;51.990;5.926;2022-12-07T08:13:41;6.75;;;1.20;;
47335;SDS011;33068;51.990;5.926;2022-12-07T08:16:18;4.97;;;1.10;;
47335;SDS011;33068;51.990;5.926;2022-12-07T08:18:45;7.72;;;1.65;;
47335;SDS011;33068;51.990;5.926;2022-12-07T08:21:15;5.20;;;1.25;;
47335;SDS011;33068;51.990;5.926;2022-12-07T08:23:42;6.38;;;1.23;;
47335;SDS011;33068;51.990;5.926;2022-12-07T08:26:11;8.73;;;2.03;;
47335;SDS011;33068;51.990;5.926;2022-12-07T08:28:41;4.82;;;1.65;;
47335;SDS011;33068;51.990;5.926;2022-12-07T08:31:10;2.95;;;1.13;;
47335;SDS011;33068;51.990;5.926;2022-12-07T08:33:39;4.50;;;1.40;;
47335;SDS011;33068;51.990;5.926;2022-12-07T08:36:07;1.70;;;1.00;;
47335;SDS011;33068;51.990;5.926;2022-12-07T08:38:36;8.13;;;1.27;;
47335;SDS011;33068;51.990;5.926;2022-12-07T08:41:06;8.35;;;1.52;;
47335;SDS011;33068;51.990;5.926;2022-12-07T08:43:34;3.13;;;1.23;;
47335;SDS011;33068;51.990;5.926;2022-12-07T08:46:06;5.80;;;1.80;;
47335;SDS011;33068;51.990;5.926;2022-12-07T08:48:37;5.28;;;1.25;;
47335;SDS011;33068;51.990;5.926;2022-12-07T08:51:07;5.70;;;1.40;;
47335;SDS011;33068;51.990;5.926;2022-12-07T08:53:34;4.82;;;1.15;;
47335;SDS011;33068;51.990;5.926;2022-12-07T08:56:03;12.30;;;1.65;;
47335;SDS011;33068;51.990;5.926;2022-12-07T08:58:31;7.07;;;1.15;;
47335;SDS011;33068;51.990;5.926;2022-12-07T09:00:59;7.57;;;1.33;;
47335;SDS011;33068;51.990;5.926;2022-12-07T09:03:28;2.75;;;1.25;;
47335;SDS011;33068;51.990;5.926;2022-12-07T09:05:55;7.40;;;1.40;;
47335;SDS011;33068;51.990;5.926;2022-12-07T09:08:22;11.15;;;1.40;;
47335;SDS011;33068;51.990;5.926;2022-12-07T09:10:53;5.53;;;1.30;;
47335;SDS011;33068;51.990;5.926;2022-12-07T09:13:20;3.95;;;1.38;;
47335;SDS011;33068;51.990;5.926;2022-12-07T09:15:50;8.00;;;1.60;;
47335;SDS011;33068;51.990;5.926;2022-12-07T09:18:19;3.80;;;1.08;;
47335;SDS011;33068;51.990;5.926;2022-12-07T09:20:53;7.60;;;1.20;;
47335;SDS011;33068;51.990;5.926;2022-12-07T09:23:20;8.82;;;1.83;;
47335;SDS011;33068;51.990;5.926;2022-12-07T09:25:47;9.20;;;1.50;;
47335;SDS011;33068;51.990;5.926;2022-12-07T09:28:14;5.18;;;1.30;;
47335;SDS011;33068;51.990;5.926;2022-12-07T09:30:45;9.38;;;2.25;;
47335;SDS011;33068;51.990;5.926;2022-12-07T09:33:15;3.05;;;1.40;;
47335;SDS011;33068;51.990;5.926;2022-12-07T09:35:44;8.20;;;2.47;;
47335;SDS011;33068;51.990;5.926;2022-12-07T09:38:13;3.78;;;1.67;;
47335;SDS011;33068;51.990;5.926;2022-12-07T09:40:41;6.68;;;1.73;;
47335;SDS011;33068;51.990;5.926;2022-12-07T09:43:11;3.55;;;1.70;;
47335;SDS011;33068;51.990;5.926;2022-12-07T09:45:41;4.13;;;1.33;;
47335;SDS011;33068;51.990;5.926;2022-12-07T09:48:14;6.47;;;1.40;;
47335;SDS011;33068;51.990;5.926;2022-12-07T09:50:47;5.32;;;1.13;;
47335;SDS011;33068;51.990;5.926;2022-12-07T09:53:18;8.80;;;1.52;;
47335;SDS011;33068;51.990;5.926;2022-12-07T09:55:51;6.35;;;0.88;;
47335;SDS011;33068;51.990;5.926;2022-12-07T09:58:20;3.28;;;1.23;;
47335;SDS011;33068;51.990;5.926;2022-12-07T10:00:53;2.05;;;0.98;;
47335;SDS011;33068;51.990;5.926;2022-12-07T10:03:23;3.63;;;0.80;;
47335;SDS011;33068;51.990;5.926;2022-12-07T10:05:59;11.32;;;1.33;;
47335;SDS011;33068;51.990;5.926;2022-12-07T10:08:32;3.72;;;1.00;;
47335;SDS011;33068;51.990;5.926;2022-12-07T10:11:06;2.70;;;1.13;;
47335;SDS011;33068;51.990;5.926;2022-12-07T10:13:39;4.65;;;1.65;;
47335;SDS011;33068;51.990;5.926;2022-12-07T10:16:24;6.35;;;1.50;;
47335;SDS011;33068;51.990;5.926;2022-12-07T10:19:20;1.90;;;1.00;;
47335;SDS011;33068;51.990;5.926;2022-12-07T10:21:59;9.60;;;1.75;;
47335;SDS011;33068;51.990;5.926;2022-12-07T10:24:39;6.20;;;1.60;;
47335;SDS011;33068;51.990;5.926;2022-12-07T10:27:16;5.45;;;1.60;;
47335;SDS011;33068;51.990;5.926;2022-12-07T10:29:49;7.43;;;1.73;;
47335;SDS011;33068;51.990;5.926;2022-12-07T10:32:28;13.60;;;1.95;;
47335;SDS011;33068;51.990;5.926;2022-12-07T10:35:20;9.55;;;1.70;;
47335;SDS011;33068;51.990;5.926;2022-12-07T10:37:55;3.58;;;1.65;;
47335;SDS011;33068;51.990;5.926;2022-12-07T10:40:27;6.95;;;1.50;;
47335;SDS011;33068;51.990;5.926;2022-12-07T10:43:02;9.45;;;1.65;;
47335;SDS011;33068;51.990;5.926;2022-12-07T10:45:32;6.00;;;1.37;;
47335;SDS011;33068;51.990;5.926;2022-12-07T10:48:10;4.18;;;1.08;;
47335;SDS011;33068;51.990;5.926;2022-12-07T10:50:47;7.88;;;1.15;;
47335;SDS011;33068;51.990;5.926;2022-12-07T10:53:28;2.00;;;0.65;;
47335;SDS011;33068;51.990;5.926;2022-12-07T10:56:14;1.33;;;0.75;;
47335;SDS011;33068;51.990;5.926;2022-12-07T10:58:57;11.38;;;1.23;;
47335;SDS011;33068;51.990;5.926;2022-12-07T11:01:45;3.85;;;0.77;;
47335;SDS011;33068;51.990;5.926;2022-12-07T11:04:21;5.05;;;0.60;;
47335;SDS011;33068;51.990;5.926;2022-12-07T11:06:58;4.97;;;0.80;;
47335;SDS011;33068;51.990;5.926;2022-12-07T11:09:36;3.83;;;0.43;;
47335;SDS011;33068;51.990;5.926;2022-12-07T11:12:20;1.45;;;0.57;;
47335;SDS011;33068;51.990;5.926;2022-12-07T11:14:56;3.38;;;0.60;;
47335;SDS011;33068;51.990;5.926;2022-12-07T11:17:30;2.28;;;0.90;;
47335;SDS011;33068;51.990;5.926;2022-12-07T11:20:05;4.05;;;1.05;;
47335;SDS011;33068;51.990;5.926;2022-12-07T11:22:49;3.42;;;0.82;;
47335;SDS011;33068;51.990;5.926;2022-12-07T11:25:34;2.03;;;0.90;;
47335;SDS011;33068;51.990;5.926;2022-12-07T11:28:15;5.32;;;1.40;;
47335;SDS011;33068;51.990;5.926;2022-12-07T11:30:54;7.45;;;0.88;;
47335;SDS011;33068;51.990;5.926;2022-12-07T11:33:29;6.07;;;0.75;;
47335;SDS011;33068;51.990;5.926;2022-12-07T11:36:09;3.50;;;0.80;;
47335;SDS011;33068;51.990;5.926;2022-12-07T11:38:58;4.45;;;0.60;;
47335;SDS011;33068;51.990;5.926;2022-12-07T11:41:28;7.45;;;0.82;;
47335;SDS011;33068;51.990;5.926;2022-12-07T11:44:01;4.28;;;0.70;;
47335;SDS011;33068;51.990;5.926;2022-12-07T11:46:37;3.58;;;1.02;;
47335;SDS011;33068;51.990;5.926;2022-12-07T11:49:14;2.33;;;0.73;;
47335;SDS011;33068;51.990;5.926;2022-12-07T11:51:50;1.83;;;0.55;;
47335;SDS011;33068;51.990;5.926;2022-12-07T11:54:21;2.05;;;0.60;;
47335;SDS011;33068;51.990;5.926;2022-12-07T11:56:53;6.25;;;0.90;;
47335;SDS011;33068;51.990;5.926;2022-12-07T11:59:31;5.90;;;1.30;;
47335;SDS011;33068;51.990;5.926;2022-12-07T12:02:09;2.85;;;0.70;;
47335;SDS011;33068;51.990;5.926;2022-12-07T12:07:14;5.97;;;0.60;;
47335;SDS011;33068;51.990;5.926;2022-12-07T12:09:47;1.58;;;0.60;;
47335;SDS011;33068;51.990;5.926;2022-12-07T12:15:26;2.20;;;0.65;;
47335;SDS011;33068;51.990;5.926;2022-12-07T12:18:06;7.35;;;1.20;;
47335;SDS011;33068;51.990;5.926;2022-12-07T12:20:56;7.88;;;0.95;;
47335;SDS011;33068;51.990;5.926;2022-12-07T12:23:27;10.35;;;0.95;;
47335;SDS011;33068;51.990;5.926;2022-12-07T12:26:03;3.20;;;0.65;;
47335;SDS011;33068;51.990;5.926;2022-12-07T12:28:38;3.10;;;0.70;;
47335;SDS011;33068;51.990;5.926;2022-12-07T12:31:11;3.25;;;1.02;;
47335;SDS011;33068;51.990;5.926;2022-12-07T12:33:43;2.33;;;0.82;;
47335;SDS011;33068;51.990;5.926;2022-12-07T12:36:22;2.33;;;0.60;;
47335;SDS011;33068;51.990;5.926;2022-12-07T12:38:52;3.53;;;1.00;;
47335;SDS011;33068;51.990;5.926;2022-12-07T12:41:58;9.70;;;0.90;;
47335;SDS011;33068;51.990;5.926;2022-12-07T12:44:39;5.22;;;1.23;;
47335;SDS011;33068;51.990;5.926;2022-12-07T12:50:15;6.13;;;0.93;;
47335;SDS011;33068;51.990;5.926;2022-12-07T12:55:44;1.67;;;0.60;;
47335;SDS011;33068;51.990;5.926;2022-12-07T12:58:29;7.32;;;0.70;;
47335;SDS011;33068;51.990;5.926;2022-12-07T13:04:17;6.97;;;1.10;;
47335;SDS011;33068;51.990;5.926;2022-12-07T13:07:00;3.22;;;0.55;;
47335;SDS011;33068;51.990;5.926;2022-12-07T13:09:30;6.63;;;0.60;;
47335;SDS011;33068;51.990;5.926;2022-12-07T13:12:03;4.63;;;1.35;;
47335;SDS011;33068;51.990;5.926;2022-12-07T13:14:57;6.78;;;0.93;;
47335;SDS011;33068;51.990;5.926;2022-12-07T13:20:44;2.80;;;0.60;;
47335;SDS011;33068;51.990;5.926;2022-12-07T13:23:20;6.60;;;0.55;;
47335;SDS011;33068;51.990;5.926;2022-12-07T13:28:32;4.53;;;1.05;;
47335;SDS011;33068;51.990;5.926;2022-12-07T13:33:57;7.90;;;0.82;;
47335;SDS011;33068;51.990;5.926;2022-12-07T13:36:25;6.55;;;0.60;;
47335;SDS011;33068;51.990;5.926;2022-12-07T13:38:57;5.35;;;1.05;;
47335;SDS011;33068;51.990;5.926;2022-12-07T13:44:33;2.72;;;0.98;;
47335;SDS011;33068;51.990;5.926;2022-12-07T13:47:06;12.43;;;1.13;;
47335;SDS011;33068;51.990;5.926;2022-12-07T13:49:41;3.35;;;0.65;;
47335;SDS011;33068;51.990;5.926;2022-12-07T13:52:14;4.43;;;1.10;;
47335;SDS011;33068;51.990;5.926;2022-12-07T13:54:46;4.00;;;0.75;;
47335;SDS011;33068;51.990;5.926;2022-12-07T13:57:15;2.75;;;0.60;;
47335;SDS011;33068;51.990;5.926;2022-12-07T13:59:42;4.10;;;0.70;;
47335;SDS011;33068;51.990;5.926;2022-12-07T14:02:18;2.58;;;0.50;;
47335;SDS011;33068;51.990;5.926;2022-12-07T14:04:47;3.53;;;0.68;;
47335;SDS011;33068;51.990;5.926;2022-12-07T14:07:20;6.07;;;0.90;;
47335;SDS011;33068;51.990;5.926;2022-12-07T14:09:57;5.50;;;0.75;;
47335;SDS011;33068;51.990;5.926;2022-12-07T14:12:26;3.03;;;0.95;;
47335;SDS011;33068;51.990;5.926;2022-12-07T14:14:54;7.95;;;0.80;;
47335;SDS011;33068;51.990;5.926;2022-12-07T14:17:23;0.63;;;0.22;;
47335;SDS011;33068;51.990;5.926;2022-12-07T14:19:52;5.70;;;0.30;;
47335;SDS011;33068;51.990;5.926;2022-12-07T14:22:30;1.27;;;0.50;;
47335;SDS011;33068;51.990;5.926;2022-12-07T14:27:53;4.82;;;0.63;;
47335;SDS011;33068;51.990;5.926;2022-12-07T14:30:24;4.47;;;0.68;;
47335;SDS011;33068;51.990;5.926;2022-12-07T14:32:54;3.80;;;0.85;;
47335;SDS011;33068;51.990;5.926;2022-12-07T14:35:37;1.65;;;0.50;;
47335;SDS011;33068;51.990;5.926;2022-12-07T14:38:05;1.90;;;0.60;;
47335;SDS011;33068;51.990;5.926;2022-12-07T14:40:35;5.63;;;1.23;;
47335;SDS011;33068;51.990;5.926;2022-12-07T14:43:03;3.30;;;0.85;;
47335;SDS011;33068;51.990;5.926;2022-12-07T14:48:06;1.95;;;0.50;;
47335;SDS011;33068;51.990;5.926;2022-12-07T14:50:37;7.45;;;1.05;;
47335;SDS011;33068;51.990;5.926;2022-12-07T14:53:09;4.63;;;0.70;;
47335;SDS011;33068;51.990;5.926;2022-12-07T14:55:52;7.38;;;1.13;;
47335;SDS011;33068;51.990;5.926;2022-12-07T14:58:20;3.47;;;0.88;;
47335;SDS011;33068;51.990;5.926;2022-12-07T15:00:50;4.82;;;1.48;;
47335;SDS011;33068;51.990;5.926;2022-12-07T15:03:23;4.20;;;1.42;;
47335;SDS011;33068;51.990;5.926;2022-12-07T15:05:51;6.00;;;2.08;;
47335;SDS011;33068;51.990;5.926;2022-12-07T15:08:20;5.35;;;1.60;;
47335;SDS011;33068;51.990;5.926;2022-12-07T15:10:55;2.20;;;0.77;;
47335;SDS011;33068;51.990;5.926;2022-12-07T15:13:22;0.93;;;0.55;;
47335;SDS011;33068;51.990;5.926;2022-12-07T15:16:10;5.07;;;1.27;;
47335;SDS011;33068;51.990;5.926;2022-12-07T15:18:43;8.45;;;1.58;;
47335;SDS011;33068;51.990;5.926;2022-12-07T15:21:11;2.70;;;1.23;;
47335;SDS011;33068;51.990;5.926;2022-12-07T15:23:43;7.65;;;1.30;;
47335;SDS011;33068;51.990;5.926;2022-12-07T15:26:13;4.93;;;1.30;;
47335;SDS011;33068;51.990;5.926;2022-12-07T15:28:43;1.63;;;0.77;;
47335;SDS011;33068;51.990;5.926;2022-12-07T15:31:17;3.90;;;1.17;;
47335;SDS011;33068;51.990;5.926;2022-12-07T15:33:47;4.55;;;1.27;;
47335;SDS011;33068;51.990;5.926;2022-12-07T15:36:24;3.50;;;1.17;;
47335;SDS011;33068;51.990;5.926;2022-12-07T15:38:56;5.53;;;1.45;;
47335;SDS011;33068;51.990;5.926;2022-12-07T15:41:26;6.55;;;1.50;;
47335;SDS011;33068;51.990;5.926;2022-12-07T15:43:53;6.68;;;1.23;;
47335;SDS011;33068;51.990;5.926;2022-12-07T15:46:39;8.77;;;1.80;;